Time;durP1;ratioP1;P1;durP2;ratioP2;P2;SDS_P1;SDS_P2;PMS_P1;PMS_P2;Temp;Humidity;BMP_temperature;BMP_pressure;BME280_temperature;BME280_humidity;BME280_pressure;Samples;Min_cycle;Max_cycle;Signal;HPM_P1;HPM_P2
2024/01/21 00:01:15;;;;;;;67.80;33.37;;;;;;;-5.67;82.82;101646.63;123148;1098;104415;-78
2024/01/21 00:04:07;;;;;;;71.90;34.17;;;;;;;-5.75;82.69;101654.09;123397;1099;104220;-78
2024/01/21 00:06:38;;;;;;;71.17;35.63;;;;;;;-5.78;82.86;101646.97;123542;1099;118795;-78
2024/01/21 00:09:11;;;;;;;71.43;33.83;;;;;;;-5.73;83.23;101650.07;123130;1102;104312;-77
2024/01/21 00:11:42;;;;;;;69.43;34.30;;;;;;;-5.70;83.03;101646.25;123397;1099;104315;-77
2024/01/21 00:14:13;;;;;;;75.17;35.63;;;;;;;-5.65;83.07;101654.47;123370;1099;104223;-77
2024/01/21 00:16:44;;;;;;;73.67;35.93;;;;;;;-5.60;83.49;101655.92;123510;1099;104239;-77
2024/01/21 00:19:16;;;;;;;69.30;33.43;;;;;;;-5.61;83.13;101657.58;123737;1099;102610;-78
2024/01/21 00:21:47;;;;;;;70.63;35.50;;;;;;;-5.61;83.11;101656.64;123365;1099;104344;-77
2024/01/21 00:24:18;;;;;;;74.73;36.23;;;;;;;-5.57;83.32;101651.16;123417;1099;104348;-76
2024/01/21 00:26:49;;;;;;;78.23;38.40;;;;;;;-5.56;82.82;101650.45;123319;1099;104358;-76
2024/01/21 00:29:20;;;;;;;79.63;37.53;;;;;;;-5.57;83.04;101658.84;123400;1099;104377;-76
2024/01/21 00:31:51;;;;;;;75.53;35.83;;;;;;;-5.63;82.99;101650.44;123475;1099;104932;-77
2024/01/21 00:34:22;;;;;;;65.57;34.87;;;;;;;-5.72;82.57;101651.91;123377;1099;104271;-77
2024/01/21 00:36:54;;;;;;;71.63;35.20;;;;;;;-5.83;82.61;101650.63;123120;1099;104271;-77
2024/01/21 00:39:25;;;;;;;72.83;33.53;;;;;;;-5.96;82.39;101646.61;123627;1099;104271;-77
2024/01/21 00:41:56;;;;;;;68.00;32.83;;;;;;;-6.08;82.75;101662.16;123489;1099;104242;-78
2024/01/21 00:44:27;;;;;;;73.80;33.27;;;;;;;-6.15;82.23;101656.31;123423;1099;104405;-77
2024/01/21 00:46:58;;;;;;;65.20;32.27;;;;;;;-6.26;82.62;101661.78;123359;1099;104344;-77
2024/01/21 00:49:30;;;;;;;69.90;35.13;;;;;;;-6.34;82.32;101655.75;123473;1099;104271;-76
2024/01/21 00:52:01;;;;;;;73.93;34.63;;;;;;;-6.37;82.06;101664.69;123396;1099;104255;-78
2024/01/21 00:54:33;;;;;;;80.67;36.40;;;;;;;-6.51;82.06;101663.91;123403;1099;104318;-76
2024/01/21 00:57:04;;;;;;;71.40;33.83;;;;;;;-6.60;81.84;101662.79;123374;1099;104357;-77
2024/01/21 00:59:35;;;;;;;74.43;34.97;;;;;;;-6.62;82.74;101655.66;123375;1099;104277;-77
2024/01/21 01:02:07;;;;;;;70.43;33.10;;;;;;;-6.65;82.13;101668.98;123184;1102;104252;-77
2024/01/21 01:04:38;;;;;;;72.37;34.93;;;;;;;-6.73;82.02;101664.55;123361;1099;104271;-76
2024/01/21 01:07:09;;;;;;;73.60;36.17;;;;;;;-6.79;82.51;101661.25;123427;1099;104320;-76
2024/01/21 01:09:40;;;;;;;74.37;35.97;;;;;;;-6.85;82.61;101663.09;123445;1099;104393;-76
2024/01/21 01:12:11;;;;;;;70.83;33.63;;;;;;;-6.89;81.83;101660.16;123339;1098;104248;-76
2024/01/21 01:14:42;;;;;;;70.33;32.57;;;;;;;-6.90;81.92;101660.87;123545;1099;104272;-77
2024/01/21 01:17:13;;;;;;;74.40;35.03;;;;;;;-6.92;82.65;101659.77;123376;1099;104271;-76
2024/01/21 01:19:44;;;;;;;66.27;33.07;;;;;;;-6.91;82.00;101665.78;123532;1099;104296;-77
2024/01/21 01:22:15;;;;;;;62.47;31.10;;;;;;;-6.89;82.48;101665.26;123371;1099;104373;-77
2024/01/21 01:24:47;;;;;;;65.53;30.40;;;;;;;-6.91;82.68;101666.69;123383;1099;104251;-78
2024/01/21 01:27:18;;;;;;;66.70;31.20;;;;;;;-6.92;82.50;101675.09;123411;1099;104351;-78
2024/01/21 01:29:49;;;;;;;64.60;30.45;;;;;;;-6.91;83.08;101669.23;123439;1099;104281;-77
2024/01/21 01:32:20;;;;;;;65.23;30.77;;;;;;;-6.87;83.12;101666.34;123399;1097;104255;-78
2024/01/21 01:34:54;;;;;;;61.57;29.40;;;;;;;-6.83;83.10;101666.73;123388;1099;104373;-77
2024/01/21 01:37:26;;;;;;;64.00;30.33;;;;;;;-6.85;82.79;101661.43;123390;1099;104300;-77
2024/01/21 01:39:57;;;;;;;54.40;26.10;;;;;;;-6.88;83.01;101667.06;123374;1099;104166;-77
2024/01/21 01:42:28;;;;;;;55.33;26.67;;;;;;;-6.87;83.16;101673.10;123370;1099;104389;-78
2024/01/21 01:44:59;;;;;;;63.87;28.73;;;;;;;-6.89;83.04;101664.32;123501;1099;104342;-77
2024/01/21 01:47:31;;;;;;;63.33;29.83;;;;;;;-6.91;83.25;101665.78;123146;1099;104338;-77
2024/01/21 01:50:02;;;;;;;60.93;29.27;;;;;;;-6.91;83.04;101665.78;123395;1099;104265;-77
2024/01/21 01:52:33;;;;;;;60.43;29.23;;;;;;;-6.93;82.72;101667.24;123389;1099;104696;-77
2024/01/21 01:55:05;;;;;;;60.27;29.77;;;;;;;-6.93;83.06;101663.04;123375;1099;104345;-77
2024/01/21 01:57:37;;;;;;;58.27;25.93;;;;;;;-6.95;82.78;101654.30;123284;1099;104241;-77
2024/01/21 02:00:10;;;;;;;59.07;28.53;;;;;;;-6.93;82.84;101663.04;123385;1099;104344;-77
2024/01/21 02:02:44;;;;;;;58.13;28.27;;;;;;;-6.90;83.13;101673.63;123395;1099;104354;-77
2024/01/21 02:05:15;;;;;;;54.33;25.93;;;;;;;-6.91;83.17;101670.89;123115;1099;104258;-77
2024/01/21 02:07:46;;;;;;;66.17;28.43;;;;;;;-6.93;82.92;101677.45;123456;1098;104753;-76
2024/01/21 02:10:18;;;;;;;62.93;28.93;;;;;;;-6.93;82.93;101667.24;123355;1099;104312;-76
2024/01/21 02:12:51;;;;;;;60.63;28.97;;;;;;;-6.83;83.35;101664.17;123350;1099;104310;-77
2024/01/21 02:15:22;;;;;;;59.87;28.27;;;;;;;-6.73;83.65;101669.66;123137;1099;104283;-77
2024/01/21 02:17:53;;;;;;;60.97;28.53;;;;;;;-6.63;84.06;101676.84;123423;1098;104245;-77
2024/01/21 02:20:24;;;;;;;54.97;25.50;;;;;;;-6.55;83.44;101676.12;123448;1099;104270;-76
2024/01/21 02:22:58;;;;;;;54.47;25.87;;;;;;;-6.47;83.85;101679.61;123460;1099;104344;-76
2024/01/21 02:25:28;;;;;;;;;;;;;;;-6.42;84.08;101681.08;123424;1099;104162;-76
2024/01/21 02:27:59;;;;;;;53.13;25.53;;;;;;;-6.37;84.02;101680.02;123342;1099;104373;-76
2024/01/21 02:30:30;;;;;;;59.30;26.27;;;;;;;-6.34;83.81;101680.39;123430;1099;104265;-76
2024/01/21 02:33:01;;;;;;;60.17;28.00;;;;;;;-6.30;84.18;101677.45;123382;1099;104239;-76
2024/01/21 02:35:33;;;;;;;60.90;27.83;;;;;;;-6.24;83.79;101670.53;123481;1099;104376;-76
2024/01/21 02:38:04;;;;;;;59.20;27.10;;;;;;;-6.23;83.33;101671.44;123375;1099;104389;-76
2024/01/21 02:40:39;;;;;;;49.43;24.70;;;;;;;-6.19;84.23;101671.09;123355;1099;104259;-76
2024/01/21 02:43:10;;;;;;;55.37;27.37;;;;;;;-6.16;83.53;101687.70;123434;1099;104264;-76
2024/01/21 02:45:42;;;;;;;51.13;24.80;;;;;;;-6.13;83.16;101689.72;123183;1098;104325;-76
2024/01/21 02:48:13;;;;;;;56.25;26.35;;;;;;;-6.11;84.10;101684.80;123413;1099;104296;-76
2024/01/21 02:50:44;;;;;;;57.40;27.07;;;;;;;-6.11;84.03;101702.69;123369;1099;104347;-76
2024/01/21 02:53:15;;;;;;;72.10;32.13;;;;;;;-6.13;83.66;101715.27;123446;1098;104778;-77
2024/01/21 02:55:47;;;;;;;64.50;30.23;;;;;;;-6.20;83.13;101722.91;123467;1099;104251;-75
2024/01/21 02:58:18;;;;;;;60.73;29.47;;;;;;;-6.30;82.72;101727.64;123649;1099;104270;-76
2024/01/21 03:00:49;;;;;;;67.33;31.60;;;;;;;-6.42;83.31;101737.27;123472;1099;104370;-76
2024/01/21 03:03:20;;;;;;;64.47;30.10;;;;;;;-6.57;82.75;101756.75;123453;1099;104332;-77
2024/01/21 03:05:51;;;;;;;61.40;31.17;;;;;;;-6.68;82.94;101757.97;123343;1099;104280;-76
2024/01/21 03:08:22;;;;;;;62.20;29.93;;;;;;;-6.77;82.01;101762.83;123441;1099;104280;-76
2024/01/21 03:10:54;;;;;;;56.67;28.23;;;;;;;-6.76;83.04;101773.95;123433;1098;104361;-76
2024/01/21 03:13:25;;;;;;;60.43;28.50;;;;;;;-6.77;83.24;101777.25;123399;1099;104347;-76
2024/01/21 03:15:56;;;;;;;57.85;28.65;;;;;;;-6.77;83.30;101774.69;123071;1099;104447;-75
2024/01/21 03:18:27;;;;;;;61.23;27.40;;;;;;;-6.74;82.95;101762.31;123323;1099;104239;-76
2024/01/21 03:20:58;;;;;;;52.50;25.93;;;;;;;-6.69;83.10;101768.89;123383;1098;104239;-76
2024/01/21 03:23:29;;;;;;;56.33;26.73;;;;;;;-6.63;83.35;101768.75;123388;1099;104361;-75
2024/01/21 03:26:00;;;;;;;55.83;25.30;;;;;;;-6.56;83.16;101763.66;123419;1098;104238;-76
2024/01/21 03:28:32;;;;;;;51.63;23.63;;;;;;;-6.45;83.97;101770.09;123399;1099;104374;-76
2024/01/21 03:31:03;;;;;;;54.73;25.43;;;;;;;-6.36;83.67;101768.67;123369;1099;104329;-77
2024/01/21 03:33:34;;;;;;;59.20;26.83;;;;;;;-6.28;83.73;101761.95;123416;1099;104348;-76
2024/01/21 03:36:06;;;;;;;57.30;25.20;;;;;;;-6.22;84.02;101767.81;123401;1099;104320;-76
2024/01/21 03:38:39;;;;;;;51.93;23.77;;;;;;;-6.15;83.80;101778.97;123498;1099;104350;-75
2024/01/21 03:41:10;;;;;;;53.97;25.97;;;;;;;-6.10;84.12;101773.52;123432;1099;104425;-75
2024/01/21 03:43:41;;;;;;;55.23;26.17;;;;;;;-6.06;84.15;101784.30;123381;1098;104341;-77
2024/01/21 03:46:13;;;;;;;55.33;25.93;;;;;;;-6.09;83.79;101776.27;122993;1099;104249;-77
2024/01/21 03:48:44;;;;;;;52.73;25.50;;;;;;;-6.11;83.78;101787.91;123387;1099;104264;-78
2024/01/21 03:51:15;;;;;;;51.30;24.67;;;;;;;-6.13;83.53;101785.92;123438;1099;104293;-76
2024/01/21 03:53:46;;;;;;;52.43;24.57;;;;;;;-6.12;83.68;101785.17;123433;1099;104297;-75
2024/01/21 03:56:21;;;;;;;48.07;23.63;;;;;;;-6.12;83.25;101780.06;123036;1101;104733;-76
2024/01/21 03:58:52;;;;;;;51.60;23.40;;;;;;;-6.12;83.64;101785.17;123382;1099;104264;-76
2024/01/21 04:01:23;;;;;;;50.63;25.03;;;;;;;-6.15;83.78;101788.28;123328;1098;104290;-77
2024/01/21 04:03:54;;;;;;;56.77;25.33;;;;;;;-6.08;84.15;101792.50;123405;1099;104238;-75
2024/01/21 04:06:26;;;;;;;56.80;26.00;;;;;;;-6.00;83.74;101791.78;123055;1102;105022;-76
2024/01/21 04:08:57;;;;;;;52.37;25.03;;;;;;;-5.88;84.33;101789.78;123389;1099;104384;-76
2024/01/21 04:11:28;;;;;;;51.47;24.60;;;;;;;-5.81;84.32;101785.59;123422;1099;104296;-75
2024/01/21 04:13:59;;;;;;;56.60;24.23;;;;;;;-5.71;84.39;101785.05;123428;1099;104291;-76
2024/01/21 04:16:32;;;;;;;51.40;24.33;;;;;;;-5.62;84.59;101786.17;123417;1099;104348;-76
2024/01/21 04:19:03;;;;;;;50.97;24.10;;;;;;;-5.55;84.32;101795.48;123372;1098;104303;-76
2024/01/21 04:21:35;;;;;;;48.73;23.07;;;;;;;-5.46;84.71;101786.35;123386;1099;104255;-76
2024/01/21 04:24:07;;;;;;;50.47;24.53;;;;;;;-5.36;84.85;101796.06;123431;1099;104367;-76
2024/01/21 04:26:39;;;;;;;51.93;23.20;;;;;;;-5.28;84.78;101792.77;123079;1099;104246;-77
2024/01/21 04:29:10;;;;;;;46.63;20.60;;;;;;;-5.23;84.73;101793.31;123428;1098;104217;-77
2024/01/21 04:31:44;;;;;;;45.43;20.40;;;;;;;-5.24;84.34;101791.48;123542;1099;104307;-77
2024/01/21 04:34:16;;;;;;;43.80;19.23;;;;;;;-5.23;84.66;101806.11;123440;1099;104290;-77
2024/01/21 04:36:47;;;;;;;43.53;17.90;;;;;;;-5.27;83.96;101806.47;123433;1099;104357;-77
2024/01/21 04:39:21;;;;;;;40.37;18.20;;;;;;;-5.29;84.02;101816.52;123416;1099;104818;-77
2024/01/21 04:41:52;;;;;;;42.23;18.63;;;;;;;-5.32;83.75;101810.13;123127;1099;104376;-77
2024/01/21 04:44:23;;;;;;;42.30;18.90;;;;;;;-5.34;84.04;101817.63;123392;1098;104309;-77
2024/01/21 04:46:55;;;;;;;36.00;17.33;;;;;;;-5.34;83.92;101826.95;123322;1099;104374;-77
2024/01/21 04:49:26;;;;;;;39.37;17.63;;;;;;;-5.36;83.94;101823.27;123369;1098;104300;-77
2024/01/21 04:51:57;;;;;;;43.53;19.47;;;;;;;-5.37;83.95;101817.25;123325;1098;104409;-77
2024/01/21 04:54:28;;;;;;;42.27;19.27;;;;;;;-5.31;84.58;101820.55;123374;1099;104239;-77
2024/01/21 04:57:00;;;;;;;38.70;18.57;;;;;;;-5.25;84.70;101825.46;123114;1099;104350;-77
2024/01/21 04:59:31;;;;;;;46.60;19.57;;;;;;;-5.19;84.46;101831.31;123393;1099;104297;-77
2024/01/21 05:02:02;;;;;;;43.13;18.50;;;;;;;-5.12;84.48;101840.66;123415;1098;104302;-78
2024/01/21 05:04:33;;;;;;;42.90;18.47;;;;;;;-5.17;84.07;101839.17;123453;1099;104239;-77
2024/01/21 05:07:04;;;;;;;43.67;20.03;;;;;;;-5.20;84.03;101841.37;123389;1099;104341;-76
2024/01/21 05:09:35;;;;;;;38.63;17.90;;;;;;;-5.24;84.06;101834.98;123410;1099;104236;-76
2024/01/21 05:12:07;;;;;;;41.07;18.77;;;;;;;-5.21;84.28;101830.23;123403;1099;104280;-77
2024/01/21 05:14:40;;;;;;;39.95;18.85;;;;;;;-5.16;84.39;101829.13;123370;1099;104262;-77
2024/01/21 05:17:11;;;;;;;35.97;17.73;;;;;;;-5.12;84.40;101835.55;123363;1099;104345;-77
2024/01/21 05:19:42;;;;;;;42.27;18.43;;;;;;;-5.15;84.39;101838.64;123410;1099;104238;-77
2024/01/21 05:22:13;;;;;;;37.07;17.60;;;;;;;-5.14;84.13;101847.22;123398;1099;104341;-77
2024/01/21 05:24:44;;;;;;;36.70;17.33;;;;;;;-5.15;84.09;101845.41;123451;1099;104235;-77
2024/01/21 05:27:16;;;;;;;38.90;18.77;;;;;;;-5.16;84.26;101849.59;123156;1099;104353;-77
2024/01/21 05:29:47;;;;;;;39.85;18.65;;;;;;;-5.16;83.95;101848.70;123115;1098;104357;-77
2024/01/21 05:32:18;;;;;;;38.27;17.43;;;;;;;-5.14;84.11;101853.27;123063;1099;104254;-77
2024/01/21 05:34:49;;;;;;;45.47;20.37;;;;;;;-5.13;84.48;101849.96;123103;1099;104336;-77
2024/01/21 05:37:20;;;;;;;40.10;17.90;;;;;;;-5.11;84.23;101856.20;123027;1099;104310;-77
2024/01/21 05:39:51;;;;;;;41.23;19.20;;;;;;;-5.16;84.50;101856.38;123100;1097;104353;-77
2024/01/21 05:42:23;;;;;;;41.57;19.30;;;;;;;-5.18;83.71;101860.41;123042;1102;104696;-76
2024/01/21 05:44:55;;;;;;;43.47;18.43;;;;;;;-5.20;84.16;101866.95;123173;1099;104301;-77
2024/01/21 05:47:26;;;;;;;39.67;18.70;;;;;;;-5.20;84.58;101867.90;123086;1099;104326;-76
2024/01/21 05:49:57;;;;;;;44.77;19.67;;;;;;;-5.17;84.29;101873.38;123127;1099;104683;-77
2024/01/21 05:52:28;;;;;;;45.13;19.97;;;;;;;-5.17;84.27;101877.56;123114;1102;104268;-77
2024/01/21 05:54:59;;;;;;;46.13;20.63;;;;;;;-5.19;84.14;101879.94;123099;1099;104242;-77
2024/01/21 05:57:30;;;;;;;44.27;20.63;;;;;;;-5.22;83.90;101876.11;123153;1099;104239;-76
2024/01/21 06:00:02;;;;;;;45.13;19.80;;;;;;;-5.27;84.43;101886.73;123074;1099;104239;-77
2024/01/21 06:02:45;;;;;;;45.03;21.33;;;;;;;-5.27;84.06;101880.67;123035;1099;104294;-77
2024/01/21 06:05:17;;;;;;;44.47;21.33;;;;;;;-5.24;84.42;101881.95;123148;1099;104376;-76
2024/01/21 06:07:48;;;;;;;40.83;20.23;;;;;;;-5.20;84.26;101882.31;123216;1099;104251;-77
2024/01/21 06:10:19;;;;;;;44.17;20.40;;;;;;;-5.17;84.53;101885.24;123095;1099;104725;-77
2024/01/21 06:12:50;;;;;;;46.37;20.53;;;;;;;-5.16;84.39;101885.42;123128;1099;104308;-78
2024/01/21 06:15:21;;;;;;;40.63;18.93;;;;;;;-5.18;84.21;101892.02;123228;1099;104366;-77
2024/01/21 06:17:54;;;;;;;42.67;19.60;;;;;;;-5.21;84.23;101894.20;123116;1099;104245;-78
2024/01/21 06:20:25;;;;;;;44.53;19.47;;;;;;;-5.20;84.15;101893.48;123120;1099;104293;-77
2024/01/21 06:22:56;;;;;;;43.23;19.67;;;;;;;-5.19;84.28;101899.52;123094;1099;104354;-77
2024/01/21 06:25:27;;;;;;;40.63;17.93;;;;;;;-5.15;84.91;101888.92;123116;1099;104376;-77
2024/01/21 06:27:58;;;;;;;39.00;18.10;;;;;;;-5.08;85.08;101897.52;123366;1099;104243;-77
2024/01/21 06:30:29;;;;;;;39.30;19.30;;;;;;;-5.00;84.79;101898.45;123386;1099;104412;-76
2024/01/21 06:33:01;;;;;;;39.17;17.53;;;;;;;-4.90;84.53;101897.89;123371;1099;104371;-77
2024/01/21 06:35:32;;;;;;;41.35;17.90;;;;;;;-4.79;84.61;101899.17;123497;1099;104431;-76
2024/01/21 06:38:04;;;;;;;33.80;16.30;;;;;;;-4.68;85.09;101893.66;123423;1099;104348;-77
2024/01/21 06:40:35;;;;;;;35.60;16.03;;;;;;;-4.57;85.03;101902.62;123417;1099;104257;-76
2024/01/21 06:43:06;;;;;;;34.57;14.90;;;;;;;-4.45;84.65;101898.05;123398;1099;104300;-76
2024/01/21 06:45:37;;;;;;;32.70;15.37;;;;;;;-4.28;85.03;101907.71;123413;1099;104357;-77
2024/01/21 06:48:09;;;;;;;29.47;13.73;;;;;;;-4.12;85.65;101910.41;123512;1099;104354;-77
2024/01/21 06:50:41;;;;;;;32.23;13.90;;;;;;;-3.96;85.68;101903.74;123397;1099;104507;-77
2024/01/21 06:53:12;;;;;;;32.60;13.73;;;;;;;-3.78;85.91;101910.09;123321;1099;104370;-76
2024/01/21 06:55:43;;;;;;;31.23;14.07;;;;;;;-3.60;85.05;101913.84;123531;1099;104239;-76
2024/01/21 06:58:15;;;;;;;30.70;12.80;;;;;;;-3.43;85.28;101915.77;123429;1099;104251;-77
2024/01/21 07:00:51;;;;;;;27.57;12.97;;;;;;;-3.30;86.02;101923.24;123533;1099;104348;-76
2024/01/21 07:03:22;;;;;;;31.77;13.80;;;;;;;-3.25;85.47;101922.10;123545;1099;104222;-77
2024/01/21 07:05:53;;;;;;;28.97;13.30;;;;;;;-3.17;85.66;101920.41;123700;1099;104393;-77
2024/01/21 07:08:25;;;;;;;29.30;13.13;;;;;;;-3.11;85.96;101921.09;123580;1099;104252;-77
2024/01/21 07:10:56;;;;;;;30.70;12.77;;;;;;;-3.03;85.63;101917.73;123759;1099;104226;-76
2024/01/21 07:13:28;;;;;;;26.73;11.90;;;;;;;-2.95;85.53;101916.92;123559;1099;104287;-78
2024/01/21 07:15:59;;;;;;;28.33;11.90;;;;;;;-2.87;86.23;101910.08;123466;1099;104319;-78
2024/01/21 07:18:30;;;;;;;28.27;12.27;;;;;;;-2.77;85.42;101915.51;123396;1099;104242;-77
2024/01/21 07:21:02;;;;;;;24.53;11.97;;;;;;;-2.66;86.02;101908.09;123375;1099;104373;-78
2024/01/21 07:23:33;;;;;;;28.25;13.45;;;;;;;-2.56;86.88;101905.77;123376;1099;104297;-76
2024/01/21 07:26:04;;;;;;;31.73;14.03;;;;;;;-2.42;85.74;101910.77;123403;1099;104345;-76
2024/01/21 07:28:35;;;;;;;30.67;13.73;;;;;;;-2.29;86.87;101901.83;123118;1099;104377;-77
2024/01/21 07:31:07;;;;;;;29.47;12.70;;;;;;;-2.18;86.03;101897.13;123398;1099;104261;-78
2024/01/21 07:33:38;;;;;;;30.50;12.87;;;;;;;-2.04;86.51;101906.34;123732;1099;104242;-78
2024/01/21 07:36:10;;;;;;;28.53;12.87;;;;;;;-1.91;85.83;101903.42;123226;1098;104705;-79
2024/01/21 07:38:41;;;;;;;29.10;13.37;;;;;;;-1.81;86.37;101906.26;123445;1099;104243;-77
2024/01/21 07:41:13;;;;;;;29.17;12.30;;;;;;;-1.68;86.46;101910.15;123416;1099;104424;-77
2024/01/21 07:43:44;;;;;;;29.93;13.57;;;;;;;-1.55;87.00;101910.69;123349;1099;104383;-78
2024/01/21 07:46:15;;;;;;;28.85;11.75;;;;;;;-1.42;86.26;101912.89;123421;1099;104379;-77
2024/01/21 07:48:46;;;;;;;29.60;12.30;;;;;;;-1.28;86.68;101909.20;123115;1099;104281;-77
2024/01/21 07:51:19;;;;;;;26.93;11.70;;;;;;;-1.14;87.33;101908.08;123460;1099;104245;-77
2024/01/21 07:53:50;;;;;;;29.37;11.20;;;;;;;-0.98;86.70;101915.75;123471;1098;104382;-78
2024/01/21 07:56:22;;;;;;;24.57;11.60;;;;;;;-0.83;86.86;101904.45;123122;1099;104332;-76
2024/01/21 07:58:53;;;;;;;23.67;10.80;;;;;;;-0.70;87.03;101918.62;123441;1098;104358;-77
2024/01/21 08:01:24;;;;;;;26.30;11.10;;;;;;;-0.61;86.67;101922.14;123402;1099;104376;-78
2024/01/21 08:03:56;;;;;;;26.03;11.73;;;;;;;-0.52;86.72;101922.19;123396;1099;104750;-77
2024/01/21 08:06:27;;;;;;;22.73;10.70;;;;;;;-0.45;87.41;101919.47;123392;1098;104309;-75
2024/01/21 08:08:58;;;;;;;26.00;11.17;;;;;;;-0.37;86.90;101923.77;123453;1098;104376;-78
2024/01/21 08:11:29;;;;;;;23.43;10.23;;;;;;;-0.29;86.49;101917.71;123439;1099;104303;-77
2024/01/21 08:14:01;;;;;;;22.53;9.87;;;;;;;-0.19;86.48;101929.86;123449;1099;104252;-78
2024/01/21 08:16:32;;;;;;;23.23;9.40;;;;;;;-0.08;86.57;101923.21;123543;1098;104203;-79
2024/01/21 08:19:03;;;;;;;23.07;9.97;;;;;;;0.03;87.27;101926.88;123215;1099;104459;-77
2024/01/21 08:21:34;;;;;;;20.83;8.00;;;;;;;0.15;86.65;101928.11;123424;1098;104425;-78
2024/01/21 08:24:06;;;;;;;19.83;8.60;;;;;;;0.27;86.88;101924.17;123437;1099;104371;-77
2024/01/21 08:26:38;;;;;;;17.97;7.63;;;;;;;0.43;86.56;101926.60;123419;1099;111554;-78
2024/01/21 08:29:09;;;;;;;21.27;8.13;;;;;;;0.57;87.06;101917.63;123228;1099;104248;-78
2024/01/21 08:31:45;;;;;;;20.33;7.60;;;;;;;0.69;87.11;101924.01;123406;1099;104306;-77
2024/01/21 08:34:16;;;;;;;19.65;8.30;;;;;;;0.78;85.80;101920.49;123525;1099;104654;-78
2024/01/21 08:36:47;;;;;;;21.60;8.80;;;;;;;0.84;86.37;101921.09;123420;1099;104350;-77
2024/01/21 08:39:18;;;;;;;20.70;8.03;;;;;;;0.93;86.71;101934.91;123132;1099;104316;-77
2024/01/21 08:41:49;;;;;;;18.60;7.60;;;;;;;1.00;86.71;101937.34;123332;1099;104315;-78
2024/01/21 08:44:21;;;;;;;19.53;8.27;;;;;;;1.07;86.34;101929.39;123488;1099;104364;-77
2024/01/21 08:46:52;;;;;;;19.07;8.83;;;;;;;1.16;86.31;101931.06;123372;1099;104724;-77
2024/01/21 08:49:26;;;;;;;23.57;9.33;;;;;;;1.24;87.17;101927.53;123379;1099;104245;-76
2024/01/21 08:51:57;;;;;;;20.93;8.27;;;;;;;1.30;86.30;101940.16;123442;1099;104296;-77
2024/01/21 08:54:29;;;;;;;21.60;8.57;;;;;;;1.33;85.90;101940.45;123450;1099;104303;-77
2024/01/21 08:57:00;;;;;;;18.90;8.23;;;;;;;1.38;86.03;101939.20;123460;1099;104353;-77
2024/01/21 08:59:32;;;;;;;20.10;8.37;;;;;;;1.42;85.97;101941.33;123436;1099;104399;-77
2024/01/21 09:02:04;;;;;;;18.87;7.83;;;;;;;1.47;86.02;101944.35;123513;1098;104303;-76
2024/01/21 09:04:35;;;;;;;19.07;8.30;;;;;;;1.52;86.00;101958.63;123248;1099;104284;-77
2024/01/21 09:07:06;;;;;;;19.37;8.67;;;;;;;1.56;84.96;101935.78;123394;1099;104303;-77
2024/01/21 09:09:37;;;;;;;20.40;8.33;;;;;;;1.60;85.77;101947.31;123516;1098;104723;-77
2024/01/21 09:12:09;;;;;;;20.60;8.57;;;;;;;1.63;85.35;101936.36;123114;1099;104354;-77
2024/01/21 09:14:41;;;;;;;20.87;8.80;;;;;;;1.67;85.39;101944.56;123199;1099;104360;-76
2024/01/21 09:17:12;;;;;;;20.37;8.37;;;;;;;1.69;85.07;101947.29;123427;1098;104303;-77
2024/01/21 09:19:47;;;;;;;19.30;7.70;;;;;;;1.69;84.40;101940.42;123666;1099;104727;-77
2024/01/21 09:22:18;;;;;;;17.77;7.27;;;;;;;1.75;84.72;101945.28;123504;1098;104376;-77
2024/01/21 09:24:49;;;;;;;18.47;8.13;;;;;;;1.81;84.73;101948.45;123382;1099;104360;-77
2024/01/21 09:27:20;;;;;;;18.70;7.37;;;;;;;1.84;83.72;101945.21;123468;1099;104257;-75
2024/01/21 09:29:51;;;;;;;19.43;7.90;;;;;;;1.89;84.88;101952.66;123195;1099;104331;-77
2024/01/21 09:32:22;;;;;;;21.93;8.53;;;;;;;1.93;83.86;101949.59;123501;1099;104293;-77
2024/01/21 09:34:53;;;;;;;18.60;8.40;;;;;;;1.98;83.85;101955.20;123399;1099;104422;-76
2024/01/21 09:37:25;;;;;;;18.37;7.77;;;;;;;2.01;84.34;101945.14;123378;1099;104280;-77
2024/01/21 09:39:58;;;;;;;18.33;8.50;;;;;;;2.03;82.29;101948.77;123470;1099;104319;-77
2024/01/21 09:42:30;;;;;;;18.85;8.03;;;;;;;2.05;84.14;101935.97;123431;1099;104725;-77
2024/01/21 09:45:01;;;;;;;16.80;7.43;;;;;;;2.10;82.96;101943.41;123174;1099;104300;-78
2024/01/21 09:47:33;;;;;;;18.73;7.33;;;;;;;2.12;83.67;101936.68;123289;1099;104367;-78
2024/01/21 09:50:04;;;;;;;16.63;7.23;;;;;;;2.17;83.01;101937.10;123144;1099;104328;-78
2024/01/21 09:52:35;;;;;;;17.83;7.33;;;;;;;2.17;83.07;101929.33;123435;1099;104338;-77
2024/01/21 09:55:07;;;;;;;18.10;7.03;;;;;;;2.16;81.86;101941.35;123413;1099;104245;-77
2024/01/21 09:57:39;;;;;;;19.70;6.80;;;;;;;2.16;82.88;101943.94;123293;1099;104670;-78
2024/01/21 10:00:15;;;;;;;16.37;7.37;;;;;;;2.15;81.66;101938.62;123480;1098;104387;-78
2024/01/21 10:02:50;;;;;;;16.97;6.97;;;;;;;2.16;81.49;101933.58;123593;1099;104348;-78
2024/01/21 10:05:21;;;;;;;17.00;6.60;;;;;;;2.18;81.66;101936.31;123475;1099;104246;-77
2024/01/21 10:07:53;;;;;;;17.97;7.37;;;;;;;2.23;82.91;101941.91;123448;1099;104278;-77
2024/01/21 10:10:24;;;;;;;14.57;6.97;;;;;;;2.28;80.53;101940.69;123228;1100;104309;-77
2024/01/21 10:12:56;;;;;;;17.17;6.87;;;;;;;2.29;80.81;101948.59;123467;1098;104258;-78
2024/01/21 10:15:27;;;;;;;14.57;6.67;;;;;;;2.28;81.34;101945.87;123430;1099;104306;-78
2024/01/21 10:17:58;;;;;;;17.47;6.50;;;;;;;2.32;80.14;101934.99;123616;1099;104319;-78
2024/01/21 10:20:30;;;;;;;19.10;6.73;;;;;;;2.29;79.15;101950.25;123268;1099;104395;-79
2024/01/21 10:23:12;;;;;;;15.37;6.40;;;;;;;2.27;80.19;101955.30;123739;1098;104347;-78
2024/01/21 10:25:47;;;;;;;13.33;6.40;;;;;;;2.31;79.54;101959.09;123453;1099;104290;-78
2024/01/21 10:28:20;;;;;;;13.67;6.10;;;;;;;2.31;80.04;101972.05;123178;1099;105759;-78
2024/01/21 10:30:51;;;;;;;15.57;6.27;;;;;;;2.33;79.89;101967.91;123556;1099;104271;-79
2024/01/21 10:33:22;;;;;;;18.87;6.93;;;;;;;2.32;79.33;101956.65;123592;1099;104274;-79
2024/01/21 10:35:56;;;;;;;15.90;6.40;;;;;;;2.32;79.53;101958.31;123570;1099;104275;-79
2024/01/21 10:38:30;;;;;;;17.42;6.70;;;;;;;2.37;80.60;101959.66;123475;1099;104278;-78
2024/01/21 10:41:02;;;;;;;15.20;6.13;;;;;;;2.39;79.11;101964.98;123558;1098;104251;-80
2024/01/21 10:43:36;;;;;;;15.35;6.10;;;;;;;2.40;79.65;101957.36;123701;1099;104252;-79
2024/01/21 10:46:06;;;;;;;;;;;;;;;2.37;77.24;101970.03;123650;1099;104242;-79
2024/01/21 10:48:38;;;;;;;11.83;5.63;;;;;;;2.30;79.03;101967.62;123321;1099;104280;-79
2024/01/21 10:51:10;;;;;;;13.10;5.63;;;;;;;2.26;78.75;101966.45;123262;1099;104536;-78
2024/01/21 10:53:44;;;;;;;15.07;5.93;;;;;;;2.29;78.09;101974.50;123210;1099;104749;-79
2024/01/21 10:56:16;;;;;;;13.30;5.90;;;;;;;2.35;79.48;101984.50;123821;1099;104252;-80
2024/01/21 10:58:48;;;;;;;13.43;5.63;;;;;;;2.47;78.53;101984.73;123698;1099;104200;-79
2024/01/21 11:01:22;;;;;;;13.23;6.07;;;;;;;2.61;78.72;101979.13;123343;1099;104229;-81
2024/01/21 11:04:07;;;;;;;12.88;5.65;;;;;;;2.72;77.41;101969.73;123764;1099;104373;-78
2024/01/21 11:06:41;;;;;;;15.63;5.63;;;;;;;2.78;77.88;101977.17;123753;1099;104274;-81
2024/01/21 11:09:16;;;;;;;16.15;5.97;;;;;;;2.84;77.40;101965.66;123441;1099;104367;-79
2024/01/21 11:11:51;;;;;;;11.77;5.27;;;;;;;2.85;76.07;101976.92;123728;1098;104360;-78
2024/01/21 11:14:35;;;;;;;12.27;4.70;;;;;;;2.81;75.61;101980.94;123760;1099;104323;-77
2024/01/21 11:17:10;;;;;;;13.10;5.65;;;;;;;2.75;75.12;101970.02;123510;1099;104338;-80
2024/01/21 11:19:43;;;;;;;;;;;;;;;2.76;74.95;101970.91;123833;1099;104240;-79